ETOU/WIE METAR and TAF weather

Enter ICAO airport designator
Station Type Date Time Source
ETOU METAR 2018/10/16 19:56 UTC NOAA

ETOU 161956Z AUTO 00000KT 8000 HZ BKN160 19/10 A3011 RMK AO2 SLP197 T01890097 $


Station Type Date Time Source
ETOU Decoded METAR 2018/10/16 19:56 UTC NOAA

Wiesbaden, Germany (ETOU) 50-03N 008-20E
Oct 16, 2018 - 03:56 PM EDT / 2018.10.16 1956 UTC
Wind: Calm:0
Visibility: 4 mile(s):0
Sky conditions: mostly cloudy
Weather: haze
Temperature: 66.0 F (18.9 C)
Dew Point: 49.5 F (9.7 C)
Relative Humidity: 55%
Pressure (altimeter): 30.11 in. Hg (1019 hPa)
ob: ETOU 161956Z AUTO 00000KT 8000 HZ BKN160 19/10 A3011 RMK AO2 SLP197 T01890097
cycle: 20

Station Type Date Time Source
ETOU TAF 2018/10/16 19:09 UTC NOAA

TAF TAF ETOU 161902Z 1619/1801 VRB06KT 9999 FEW150 QNH3006INS
BECMG 1715/1716 VRB06KT 9999 SCT180 QNH3007INS TX23/1714Z TN06/1705Z


Example: see airport list